sensor_id;sensor_type;location;lat;lon;timestamp;P1;durP1;ratioP1;P2;durP2;ratioP2
45382;SDS011;42455;51.660;5.824;2022-12-22T00:01:57;10.0;;;9.0;;
45382;SDS011;42455;51.660;5.824;2022-12-22T00:07:03;10.0;;;9.0;;
45382;SDS011;42455;51.660;5.824;2022-12-22T00:12:10;10.0;;;9.0;;
45382;SDS011;42455;51.660;5.824;2022-12-22T00:17:23;11.0;;;10.0;;
45382;SDS011;42455;51.660;5.824;2022-12-22T00:22:22;11.0;;;10.0;;
45382;SDS011;42455;51.660;5.824;2022-12-22T00:27:30;11.0;;;10.0;;
45382;SDS011;42455;51.660;5.824;2022-12-22T00:32:36;11.0;;;10.0;;
45382;SDS011;42455;51.660;5.824;2022-12-22T00:37:40;11.0;;;10.0;;
45382;SDS011;42455;51.660;5.824;2022-12-22T00:42:47;11.0;;;10.0;;
45382;SDS011;42455;51.660;5.824;2022-12-22T00:47:53;11.0;;;9.5;;
45382;SDS011;42455;51.660;5.824;2022-12-22T00:53:00;10.0;;;9.0;;
45382;SDS011;42455;51.660;5.824;2022-12-22T00:58:06;10.0;;;9.0;;
45382;SDS011;42455;51.660;5.824;2022-12-22T01:03:11;10.0;;;9.0;;
45382;SDS011;42455;51.660;5.824;2022-12-22T01:08:18;10.0;;;9.0;;
45382;SDS011;42455;51.660;5.824;2022-12-22T01:13:24;11.0;;;10.0;;
45382;SDS011;42455;51.660;5.824;2022-12-22T01:18:30;11.0;;;10.0;;
45382;SDS011;42455;51.660;5.824;2022-12-22T01:23:36;11.0;;;10.0;;
45382;SDS011;42455;51.660;5.824;2022-12-22T01:28:42;12.0;;;11.0;;
45382;SDS011;42455;51.660;5.824;2022-12-22T01:33:49;12.0;;;11.0;;
45382;SDS011;42455;51.660;5.824;2022-12-22T01:38:55;12.0;;;11.0;;
45382;SDS011;42455;51.660;5.824;2022-12-22T01:44:10;12.0;;;11.0;;
45382;SDS011;42455;51.660;5.824;2022-12-22T01:49:07;12.0;;;11.0;;
45382;SDS011;42455;51.660;5.824;2022-12-22T01:54:12;13.0;;;11.0;;
45382;SDS011;42455;51.660;5.824;2022-12-22T01:59:19;12.0;;;11.0;;
45382;SDS011;42455;51.660;5.824;2022-12-22T02:04:26;13.0;;;12.0;;
45382;SDS011;42455;51.660;5.824;2022-12-22T02:09:43;13.0;;;12.0;;
45382;SDS011;42455;51.660;5.824;2022-12-22T02:15:45;14.0;;;12.0;;
45382;SDS011;42455;51.660;5.824;2022-12-22T02:20:42;13.5;;;12.0;;
45382;SDS011;42455;51.660;5.824;2022-12-22T02:25:30;13.0;;;12.0;;
45382;SDS011;42455;51.660;5.824;2022-12-22T02:29:58;13.0;;;12.0;;
45382;SDS011;42455;51.660;5.824;2022-12-22T02:35:08;14.0;;;13.0;;
45382;SDS011;42455;51.660;5.824;2022-12-22T02:40:49;14.0;;;13.0;;
45382;SDS011;42455;51.660;5.824;2022-12-22T02:46:30;15.0;;;13.0;;
45382;SDS011;42455;51.660;5.824;2022-12-22T02:50:38;14.0;;;13.0;;
45382;SDS011;42455;51.660;5.824;2022-12-22T02:55:27;15.0;;;13.0;;
45382;SDS011;42455;51.660;5.824;2022-12-22T03:00:33;15.0;;;14.0;;
45382;SDS011;42455;51.660;5.824;2022-12-22T03:05:39;16.0;;;14.0;;
45382;SDS011;42455;51.660;5.824;2022-12-22T03:10:46;16.0;;;14.0;;
45382;SDS011;42455;51.660;5.824;2022-12-22T03:15:52;16.0;;;14.5;;
45382;SDS011;42455;51.660;5.824;2022-12-22T03:20:58;16.0;;;14.0;;
45382;SDS011;42455;51.660;5.824;2022-12-22T03:26:04;16.0;;;15.0;;
45382;SDS011;42455;51.660;5.824;2022-12-22T03:31:11;16.5;;;15.0;;
45382;SDS011;42455;51.660;5.824;2022-12-22T03:36:17;17.0;;;15.0;;
45382;SDS011;42455;51.660;5.824;2022-12-22T03:41:23;17.0;;;15.0;;
45382;SDS011;42455;51.660;5.824;2022-12-22T03:46:29;18.0;;;16.0;;
45382;SDS011;42455;51.660;5.824;2022-12-22T03:51:38;17.5;;;16.0;;
45382;SDS011;42455;51.660;5.824;2022-12-22T03:56:42;17.0;;;16.0;;
45382;SDS011;42455;51.660;5.824;2022-12-22T04:01:49;18.0;;;16.0;;
45382;SDS011;42455;51.660;5.824;2022-12-22T04:06:54;19.0;;;17.0;;
45382;SDS011;42455;51.660;5.824;2022-12-22T04:12:00;22.0;;;16.0;;
45382;SDS011;42455;51.660;5.824;2022-12-22T04:17:06;18.0;;;16.0;;
45382;SDS011;42455;51.660;5.824;2022-12-22T04:22:13;18.0;;;16.5;;
45382;SDS011;42455;51.660;5.824;2022-12-22T04:27:19;18.0;;;16.0;;
45382;SDS011;42455;51.660;5.824;2022-12-22T04:32:25;51.0;;;17.0;;
45382;SDS011;42455;51.660;5.824;2022-12-22T04:37:31;28.0;;;17.0;;
45382;SDS011;42455;51.660;5.824;2022-12-22T04:42:37;21.5;;;18.0;;
45382;SDS011;42455;51.660;5.824;2022-12-22T04:47:44;24.5;;;19.0;;
45382;SDS011;42455;51.660;5.824;2022-12-22T04:52:50;21.0;;;19.0;;
45382;SDS011;42455;51.660;5.824;2022-12-22T04:57:56;52.0;;;19.0;;
45382;SDS011;42455;51.660;5.824;2022-12-22T05:03:02;27.0;;;18.0;;
45382;SDS011;42455;51.660;5.824;2022-12-22T05:08:09;35.5;;;17.0;;
45382;SDS011;42455;51.660;5.824;2022-12-22T05:13:15;70.5;;;20.0;;
45382;SDS011;42455;51.660;5.824;2022-12-22T05:18:21;35.0;;;18.0;;
45382;SDS011;42455;51.660;5.824;2022-12-22T05:23:27;19.0;;;17.0;;
45382;SDS011;42455;51.660;5.824;2022-12-22T05:28:33;31.0;;;18.0;;
45382;SDS011;42455;51.660;5.824;2022-12-22T05:33:39;45.5;;;18.0;;
45382;SDS011;42455;51.660;5.824;2022-12-22T05:38:46;33.0;;;16.0;;
45382;SDS011;42455;51.660;5.824;2022-12-22T05:43:52;18.0;;;16.0;;
45382;SDS011;42455;51.660;5.824;2022-12-22T05:48:58;32.5;;;16.0;;
45382;SDS011;42455;51.660;5.824;2022-12-22T05:54:04;19.0;;;17.0;;
45382;SDS011;42455;51.660;5.824;2022-12-22T05:59:10;19.0;;;17.0;;
45382;SDS011;42455;51.660;5.824;2022-12-22T06:04:17;20.0;;;17.0;;
45382;SDS011;42455;51.660;5.824;2022-12-22T06:09:23;40.5;;;20.0;;
45382;SDS011;42455;51.660;5.824;2022-12-22T06:14:29;30.0;;;20.0;;
45382;SDS011;42455;51.660;5.824;2022-12-22T06:19:35;43.5;;;19.0;;
45382;SDS011;42455;51.660;5.824;2022-12-22T06:24:42;44.5;;;18.0;;
45382;SDS011;42455;51.660;5.824;2022-12-22T06:29:48;21.0;;;15.0;;
45382;SDS011;42455;51.660;5.824;2022-12-22T06:34:54;25.5;;;16.0;;
45382;SDS011;42455;51.660;5.824;2022-12-22T06:40:00;20.0;;;16.0;;
45382;SDS011;42455;51.660;5.824;2022-12-22T06:45:07;20.5;;;16.0;;
45382;SDS011;42455;51.660;5.824;2022-12-22T06:50:13;17.0;;;14.0;;
45382;SDS011;42455;51.660;5.824;2022-12-22T06:55:19;18.0;;;15.0;;
45382;SDS011;42455;51.660;5.824;2022-12-22T07:00:25;17.0;;;15.0;;
45382;SDS011;42455;51.660;5.824;2022-12-22T07:05:31;19.5;;;15.0;;
45382;SDS011;42455;51.660;5.824;2022-12-22T07:10:37;23.5;;;17.0;;
45382;SDS011;42455;51.660;5.824;2022-12-22T07:15:44;24.5;;;17.0;;
45382;SDS011;42455;51.660;5.824;2022-12-22T07:20:49;26.5;;;17.0;;
45382;SDS011;42455;51.660;5.824;2022-12-22T07:25:56;27.0;;;18.0;;
45382;SDS011;42455;51.660;5.824;2022-12-22T07:31:02;30.0;;;21.0;;
45382;SDS011;42455;51.660;5.824;2022-12-22T07:36:09;29.0;;;20.0;;
45382;SDS011;42455;51.660;5.824;2022-12-22T07:41:14;30.0;;;20.0;;
45382;SDS011;42455;51.660;5.824;2022-12-22T07:46:20;31.0;;;21.0;;
45382;SDS011;42455;51.660;5.824;2022-12-22T07:51:25;32.0;;;21.0;;
45382;SDS011;42455;51.660;5.824;2022-12-22T07:56:31;32.5;;;21.0;;
45382;SDS011;42455;51.660;5.824;2022-12-22T08:01:38;30.0;;;20.0;;
45382;SDS011;42455;51.660;5.824;2022-12-22T08:06:44;33.5;;;21.0;;
45382;SDS011;42455;51.660;5.824;2022-12-22T08:11:50;32.0;;;22.0;;
45382;SDS011;42455;51.660;5.824;2022-12-22T08:16:56;35.0;;;21.5;;
45382;SDS011;42455;51.660;5.824;2022-12-22T08:22:02;34.0;;;21.0;;
45382;SDS011;42455;51.660;5.824;2022-12-22T08:27:11;39.0;;;24.0;;
45382;SDS011;42455;51.660;5.824;2022-12-22T08:32:15;40.0;;;24.0;;
45382;SDS011;42455;51.660;5.824;2022-12-22T08:37:22;42.0;;;24.0;;
45382;SDS011;42455;51.660;5.824;2022-12-22T08:42:27;40.0;;;23.0;;
45382;SDS011;42455;51.660;5.824;2022-12-22T08:47:33;42.0;;;23.0;;
45382;SDS011;42455;51.660;5.824;2022-12-22T08:52:40;43.0;;;24.0;;
45382;SDS011;42455;51.660;5.824;2022-12-22T08:57:46;38.5;;;23.0;;
45382;SDS011;42455;51.660;5.824;2022-12-22T09:02:52;39.5;;;23.0;;
45382;SDS011;42455;51.660;5.824;2022-12-22T09:07:58;38.0;;;22.0;;
45382;SDS011;42455;51.660;5.824;2022-12-22T09:13:04;37.0;;;23.0;;
45382;SDS011;42455;51.660;5.824;2022-12-22T09:18:11;32.0;;;20.0;;
45382;SDS011;42455;51.660;5.824;2022-12-22T09:23:17;32.0;;;20.0;;
45382;SDS011;42455;51.660;5.824;2022-12-22T09:28:23;33.0;;;20.0;;
45382;SDS011;42455;51.660;5.824;2022-12-22T09:33:29;32.0;;;21.5;;
45382;SDS011;42455;51.660;5.824;2022-12-22T09:38:36;32.0;;;21.0;;
45382;SDS011;42455;51.660;5.824;2022-12-22T09:43:42;32.0;;;22.0;;
45382;SDS011;42455;51.660;5.824;2022-12-22T09:48:48;33.0;;;22.0;;
45382;SDS011;42455;51.660;5.824;2022-12-22T09:53:56;34.0;;;22.0;;
45382;SDS011;42455;51.660;5.824;2022-12-22T09:59:00;35.0;;;21.0;;
45382;SDS011;42455;51.660;5.824;2022-12-22T10:04:13;33.0;;;22.0;;
45382;SDS011;42455;51.660;5.824;2022-12-22T10:09:13;35.0;;;23.0;;
45382;SDS011;42455;51.660;5.824;2022-12-22T10:14:19;31.0;;;21.0;;
45382;SDS011;42455;51.660;5.824;2022-12-22T10:19:25;30.5;;;20.0;;
45382;SDS011;42455;51.660;5.824;2022-12-22T10:24:31;32.0;;;21.0;;
45382;SDS011;42455;51.660;5.824;2022-12-22T10:29:38;32.0;;;21.0;;
45382;SDS011;42455;51.660;5.824;2022-12-22T10:34:58;34.0;;;21.0;;
45382;SDS011;42455;51.660;5.824;2022-12-22T10:39:50;30.0;;;20.0;;
45382;SDS011;42455;51.660;5.824;2022-12-22T10:44:56;30.0;;;19.0;;
45382;SDS011;42455;51.660;5.824;2022-12-22T10:50:02;29.0;;;19.5;;
45382;SDS011;42455;51.660;5.824;2022-12-22T10:55:17;29.0;;;20.0;;
45382;SDS011;42455;51.660;5.824;2022-12-22T11:00:27;29.5;;;21.0;;
45382;SDS011;42455;51.660;5.824;2022-12-22T11:05:21;30.0;;;23.0;;
45382;SDS011;42455;51.660;5.824;2022-12-22T11:10:30;30.0;;;24.0;;
45382;SDS011;42455;51.660;5.824;2022-12-22T11:15:50;28.0;;;24.0;;
45382;SDS011;42455;51.660;5.824;2022-12-22T11:21:38;30.0;;;24.5;;
45382;SDS011;42455;51.660;5.824;2022-12-22T11:27:04;29.0;;;25.0;;
45382;SDS011;42455;51.660;5.824;2022-12-22T11:33:14;29.0;;;25.0;;
45382;SDS011;42455;51.660;5.824;2022-12-22T11:38:46;21.0;;;17.0;;
45382;SDS011;42455;51.660;5.824;2022-12-22T11:43:23;22.0;;;17.0;;
45382;SDS011;42455;51.660;5.824;2022-12-22T11:49:23;22.0;;;17.0;;
45382;SDS011;42455;51.660;5.824;2022-12-22T11:54:41;21.0;;;16.0;;
45382;SDS011;42455;51.660;5.824;2022-12-22T11:59:55;19.0;;;15.0;;
45382;SDS011;42455;51.660;5.824;2022-12-22T12:02:18;20.0;;;14.0;;
45382;SDS011;42455;51.660;5.824;2022-12-22T12:07:43;18.0;;;12.0;;
45382;SDS011;42455;51.660;5.824;2022-12-22T12:12:19;18.0;;;12.0;;
45382;SDS011;42455;51.660;5.824;2022-12-22T12:16:54;17.0;;;12.0;;
45382;SDS011;42455;51.660;5.824;2022-12-22T12:22:23;16.0;;;12.0;;
45382;SDS011;42455;51.660;5.824;2022-12-22T12:27:07;18.0;;;14.0;;
45382;SDS011;42455;51.660;5.824;2022-12-22T12:32:09;21.0;;;18.0;;
45382;SDS011;42455;51.660;5.824;2022-12-22T12:37:20;23.0;;;20.0;;
45382;SDS011;42455;51.660;5.824;2022-12-22T12:42:35;22.0;;;20.0;;
45382;SDS011;42455;51.660;5.824;2022-12-22T12:47:29;24.0;;;21.5;;
45382;SDS011;42455;51.660;5.824;2022-12-22T12:57:51;26.0;;;22.0;;
45382;SDS011;42455;51.660;5.824;2022-12-22T13:02:56;24.0;;;22.0;;
45382;SDS011;42455;51.660;5.824;2022-12-22T13:08:23;25.0;;;23.0;;
45382;SDS011;42455;51.660;5.824;2022-12-22T13:12:56;25.0;;;22.0;;
45382;SDS011;42455;51.660;5.824;2022-12-22T13:18:03;25.0;;;22.0;;
45382;SDS011;42455;51.660;5.824;2022-12-22T13:23:11;26.0;;;22.0;;
45382;SDS011;42455;51.660;5.824;2022-12-22T13:28:15;24.5;;;22.0;;
45382;SDS011;42455;51.660;5.824;2022-12-22T13:33:21;17.0;;;15.0;;
45382;SDS011;42455;51.660;5.824;2022-12-22T13:38:32;15.0;;;13.0;;
45382;SDS011;42455;51.660;5.824;2022-12-22T13:43:32;16.0;;;15.0;;
45382;SDS011;42455;51.660;5.824;2022-12-22T13:48:40;16.0;;;14.0;;
45382;SDS011;42455;51.660;5.824;2022-12-22T13:53:47;17.0;;;14.0;;
45382;SDS011;42455;51.660;5.824;2022-12-22T13:58:52;16.0;;;14.5;;
45382;SDS011;42455;51.660;5.824;2022-12-22T14:03:58;16.0;;;15.0;;
45382;SDS011;42455;51.660;5.824;2022-12-22T14:09:11;17.5;;;15.0;;
45382;SDS011;42455;51.660;5.824;2022-12-22T14:19:16;17.0;;;15.0;;
45382;SDS011;42455;51.660;5.824;2022-12-22T14:24:23;18.0;;;16.0;;
45382;SDS011;42455;51.660;5.824;2022-12-22T14:29:29;17.0;;;15.0;;
45382;SDS011;42455;51.660;5.824;2022-12-22T14:34:35;18.0;;;16.0;;
45382;SDS011;42455;51.660;5.824;2022-12-22T14:39:41;18.0;;;16.0;;
45382;SDS011;42455;51.660;5.824;2022-12-22T14:44:47;18.0;;;16.0;;
45382;SDS011;42455;51.660;5.824;2022-12-22T14:49:57;19.0;;;16.0;;
45382;SDS011;42455;51.660;5.824;2022-12-22T14:55:00;18.0;;;15.0;;
45382;SDS011;42455;51.660;5.824;2022-12-22T15:00:28;19.0;;;15.5;;
45382;SDS011;42455;51.660;5.824;2022-12-22T15:05:15;17.0;;;16.0;;
45382;SDS011;42455;51.660;5.824;2022-12-22T15:10:18;16.0;;;14.0;;
45382;SDS011;42455;51.660;5.824;2022-12-22T15:15:24;16.0;;;13.0;;
45382;SDS011;42455;51.660;5.824;2022-12-22T15:20:30;13.0;;;12.0;;
45382;SDS011;42455;51.660;5.824;2022-12-22T15:25:37;13.0;;;12.0;;
45382;SDS011;42455;51.660;5.824;2022-12-22T15:30:43;12.0;;;11.0;;
45382;SDS011;42455;51.660;5.824;2022-12-22T15:35:49;13.0;;;11.0;;
45382;SDS011;42455;51.660;5.824;2022-12-22T15:40:55;13.0;;;11.0;;
45382;SDS011;42455;51.660;5.824;2022-12-22T15:46:02;12.0;;;11.0;;
45382;SDS011;42455;51.660;5.824;2022-12-22T15:56:14;14.0;;;12.0;;
45382;SDS011;42455;51.660;5.824;2022-12-22T16:01:20;14.0;;;12.5;;
45382;SDS011;42455;51.660;5.824;2022-12-22T16:06:26;16.0;;;14.0;;
45382;SDS011;42455;51.660;5.824;2022-12-22T16:11:32;17.0;;;15.0;;
45382;SDS011;42455;51.660;5.824;2022-12-22T16:16:39;16.0;;;14.0;;
45382;SDS011;42455;51.660;5.824;2022-12-22T16:21:46;17.0;;;15.0;;
45382;SDS011;42455;51.660;5.824;2022-12-22T16:26:51;17.0;;;15.0;;
45382;SDS011;42455;51.660;5.824;2022-12-22T16:32:01;19.0;;;17.0;;
45382;SDS011;42455;51.660;5.824;2022-12-22T16:37:04;17.0;;;16.0;;
45382;SDS011;42455;51.660;5.824;2022-12-22T16:42:10;15.0;;;14.0;;
45382;SDS011;42455;51.660;5.824;2022-12-22T16:47:16;15.0;;;14.0;;
45382;SDS011;42455;51.660;5.824;2022-12-22T16:52:23;15.0;;;13.0;;
45382;SDS011;42455;51.660;5.824;2022-12-22T16:57:28;14.5;;;13.0;;
45382;SDS011;42455;51.660;5.824;2022-12-22T17:02:35;14.0;;;13.0;;
45382;SDS011;42455;51.660;5.824;2022-12-22T17:07:41;14.0;;;13.0;;
45382;SDS011;42455;51.660;5.824;2022-12-22T17:12:47;13.0;;;12.0;;
45382;SDS011;42455;51.660;5.824;2022-12-22T17:17:53;13.0;;;12.0;;
45382;SDS011;42455;51.660;5.824;2022-12-22T17:22:59;13.0;;;12.0;;
45382;SDS011;42455;51.660;5.824;2022-12-22T17:28:07;14.0;;;12.0;;
45382;SDS011;42455;51.660;5.824;2022-12-22T17:33:14;14.0;;;13.0;;
45382;SDS011;42455;51.660;5.824;2022-12-22T17:38:19;13.5;;;12.0;;
45382;SDS011;42455;51.660;5.824;2022-12-22T17:43:24;13.0;;;12.0;;
45382;SDS011;42455;51.660;5.824;2022-12-22T17:48:31;14.0;;;12.0;;
45382;SDS011;42455;51.660;5.824;2022-12-22T17:53:37;14.0;;;12.0;;
45382;SDS011;42455;51.660;5.824;2022-12-22T17:58:43;13.0;;;11.5;;
45382;SDS011;42455;51.660;5.824;2022-12-22T18:03:49;13.0;;;12.0;;
45382;SDS011;42455;51.660;5.824;2022-12-22T18:08:55;13.0;;;12.0;;
45382;SDS011;42455;51.660;5.824;2022-12-22T18:14:01;14.0;;;12.0;;
45382;SDS011;42455;51.660;5.824;2022-12-22T18:19:08;14.0;;;12.0;;
45382;SDS011;42455;51.660;5.824;2022-12-22T18:24:14;15.0;;;12.0;;
45382;SDS011;42455;51.660;5.824;2022-12-22T18:29:21;14.0;;;11.0;;
45382;SDS011;42455;51.660;5.824;2022-12-22T18:34:26;16.5;;;11.0;;
45382;SDS011;42455;51.660;5.824;2022-12-22T18:39:33;13.0;;;10.0;;
45382;SDS011;42455;51.660;5.824;2022-12-22T18:44:39;15.5;;;9.0;;
45382;SDS011;42455;51.660;5.824;2022-12-22T18:49:45;15.0;;;9.0;;
45382;SDS011;42455;51.660;5.824;2022-12-22T18:54:51;16.0;;;8.0;;
45382;SDS011;42455;51.660;5.824;2022-12-22T18:59:56;16.0;;;8.5;;
45382;SDS011;42455;51.660;5.824;2022-12-22T19:05:05;20.5;;;9.0;;
45382;SDS011;42455;51.660;5.824;2022-12-22T19:10:09;19.0;;;9.0;;
45382;SDS011;42455;51.660;5.824;2022-12-22T19:15:20;21.0;;;9.0;;
45382;SDS011;42455;51.660;5.824;2022-12-22T19:20:22;25.0;;;9.0;;
45382;SDS011;42455;51.660;5.824;2022-12-22T19:25:28;23.0;;;8.0;;
45382;SDS011;42455;51.660;5.824;2022-12-22T19:30:34;22.0;;;9.0;;
45382;SDS011;42455;51.660;5.824;2022-12-22T19:35:40;20.5;;;8.0;;
45382;SDS011;42455;51.660;5.824;2022-12-22T19:40:46;22.0;;;8.0;;
45382;SDS011;42455;51.660;5.824;2022-12-22T19:45:53;21.0;;;8.0;;
45382;SDS011;42455;51.660;5.824;2022-12-22T19:50:59;18.0;;;8.0;;
45382;SDS011;42455;51.660;5.824;2022-12-22T19:56:07;18.0;;;7.0;;
45382;SDS011;42455;51.660;5.824;2022-12-22T20:01:11;18.0;;;7.0;;
45382;SDS011;42455;51.660;5.824;2022-12-22T20:11:23;18.0;;;7.0;;
45382;SDS011;42455;51.660;5.824;2022-12-22T20:16:29;17.0;;;7.0;;
45382;SDS011;42455;51.660;5.824;2022-12-22T20:21:36;17.0;;;7.0;;
45382;SDS011;42455;51.660;5.824;2022-12-22T20:26:42;18.0;;;7.0;;
45382;SDS011;42455;51.660;5.824;2022-12-22T20:31:48;17.0;;;6.0;;
45382;SDS011;42455;51.660;5.824;2022-12-22T20:36:54;21.0;;;8.0;;
45382;SDS011;42455;51.660;5.824;2022-12-22T20:42:01;19.0;;;7.0;;
45382;SDS011;42455;51.660;5.824;2022-12-22T20:47:08;18.0;;;7.0;;
45382;SDS011;42455;51.660;5.824;2022-12-22T20:52:13;20.0;;;7.0;;
45382;SDS011;42455;51.660;5.824;2022-12-22T20:57:22;20.5;;;7.0;;
45382;SDS011;42455;51.660;5.824;2022-12-22T21:02:25;17.0;;;7.0;;
45382;SDS011;42455;51.660;5.824;2022-12-22T21:07:32;21.0;;;7.0;;
45382;SDS011;42455;51.660;5.824;2022-12-22T21:12:38;21.0;;;8.0;;
45382;SDS011;42455;51.660;5.824;2022-12-22T21:17:44;20.0;;;7.0;;
45382;SDS011;42455;51.660;5.824;2022-12-22T21:22:50;20.0;;;7.0;;
45382;SDS011;42455;51.660;5.824;2022-12-22T21:27:57;21.0;;;6.0;;
45382;SDS011;42455;51.660;5.824;2022-12-22T21:33:03;19.0;;;7.0;;
45382;SDS011;42455;51.660;5.824;2022-12-22T21:38:11;17.5;;;6.0;;
45382;SDS011;42455;51.660;5.824;2022-12-22T21:43:15;17.0;;;6.0;;
45382;SDS011;42455;51.660;5.824;2022-12-22T21:48:21;17.0;;;6.0;;
45382;SDS011;42455;51.660;5.824;2022-12-22T21:53:27;14.0;;;6.0;;
45382;SDS011;42455;51.660;5.824;2022-12-22T21:58:34;14.0;;;6.0;;
45382;SDS011;42455;51.660;5.824;2022-12-22T22:03:40;17.0;;;6.0;;
45382;SDS011;42455;51.660;5.824;2022-12-22T22:08:46;13.0;;;6.0;;
45382;SDS011;42455;51.660;5.824;2022-12-22T22:13:52;16.0;;;6.5;;
45382;SDS011;42455;51.660;5.824;2022-12-22T22:18:58;16.0;;;7.0;;
45382;SDS011;42455;51.660;5.824;2022-12-22T22:24:05;16.0;;;6.0;;
45382;SDS011;42455;51.660;5.824;2022-12-22T22:29:11;16.0;;;6.0;;
45382;SDS011;42455;51.660;5.824;2022-12-22T22:34:17;16.5;;;7.0;;
45382;SDS011;42455;51.660;5.824;2022-12-22T22:39:23;15.0;;;7.0;;
45382;SDS011;42455;51.660;5.824;2022-12-22T22:44:30;16.0;;;7.0;;
45382;SDS011;42455;51.660;5.824;2022-12-22T22:49:36;15.0;;;7.0;;
45382;SDS011;42455;51.660;5.824;2022-12-22T22:54:42;17.0;;;7.0;;
45382;SDS011;42455;51.660;5.824;2022-12-22T22:59:48;14.5;;;6.0;;
45382;SDS011;42455;51.660;5.824;2022-12-22T23:04:54;14.0;;;7.0;;
45382;SDS011;42455;51.660;5.824;2022-12-22T23:10:01;16.0;;;8.0;;
45382;SDS011;42455;51.660;5.824;2022-12-22T23:15:07;15.0;;;8.0;;
45382;SDS011;42455;51.660;5.824;2022-12-22T23:20:13;15.0;;;8.0;;
45382;SDS011;42455;51.660;5.824;2022-12-22T23:25:19;18.0;;;8.0;;
45382;SDS011;42455;51.660;5.824;2022-12-22T23:30:25;17.0;;;9.0;;
45382;SDS011;42455;51.660;5.824;2022-12-22T23:35:34;18.0;;;9.0;;
45382;SDS011;42455;51.660;5.824;2022-12-22T23:40:38;18.0;;;10.0;;
45382;SDS011;42455;51.660;5.824;2022-12-22T23:45:44;18.0;;;11.0;;
45382;SDS011;42455;51.660;5.824;2022-12-22T23:50:50;16.5;;;11.0;;
45382;SDS011;42455;51.660;5.824;2022-12-22T23:55:57;18.0;;;12.0;;
